Overview Statistics Trail Chart Weather Telemetry Raw packets
 

This is the latest recevied weather packets stored in our database for station/object IN3MWE-10. If no packets are shown the sender has not sent any weather packets the latest 10 day(s).

<< 7 8 9 10 11 12 13 >>
Time Temp. Humidity Pressure Rain* Wind** Luminosity Snow
1788471324 23.89° C 46% 984.2 hPa - - - -
1788470423 23.89° C 46% 984 hPa - - - -
1788469523 24.44° C 46% 983.8 hPa - - - -
1788468623 24.44° C 46% 983.6 hPa - - - -
1788467723 24.44° C 46% 983.5 hPa - - - -
1788466823 24.44° C 46% 983.5 hPa - - - -
1788465923 25° C 44% 983.4 hPa - - - -
1788465023 25° C 45% 983.3 hPa - - - -
1788464123 25° C 44% 983.1 hPa - - - -
1788463222 25.56° C 44% 982.8 hPa - - - -
1788462322 25.56° C 43% 982.5 hPa - - - -
1788461422 25.56° C 43% 982.4 hPa - - - -
1788460522 25.56° C 44% 982.3 hPa - - - -
1788459622 25.56° C 45% 982 hPa - - - -
1788458722 26.11° C 44% 981.8 hPa - - - -
1788457822 26.11° C 44% 981.5 hPa - - - -
1788456921 26.67° C 42% 981.4 hPa - - - -
1788456021 27.22° C 43% 981.2 hPa - - - -
1788455121 27.78° C 40% 981.2 hPa - - - -
1788454221 28.33° C 39% 981.1 hPa - - - -
1788453321 28.89° C 39% 981 hPa - - - -
1788452421 30° C 37% 980.7 hPa - - - -
1788451521 31.11° C 33% 980.7 hPa - - - -
1788450620 37.22° C 24% 980.6 hPa - - - -
1788449720 36.67° C 24% 980.6 hPa - - - -

* Rain since midnight (hover to see other rain measurements)
** Current wind speed in m/s (hover to see current wind gust speed)